createdAt,value
2023-04-21T00:00:28.527Z,59.39
2023-04-21T00:02:56.686Z,59.26
2023-04-21T00:05:25.023Z,58.86
2023-04-21T00:07:53.133Z,58.48
2023-04-21T00:10:21.234Z,58.71
2023-04-21T00:12:49.343Z,58.59
2023-04-21T00:15:17.373Z,58.54
2023-04-21T00:17:47.135Z,59.73
2023-04-21T00:20:15.472Z,61.44
2023-04-21T00:22:43.803Z,60.20
2023-04-21T00:25:11.888Z,59.12
2023-04-21T00:27:40.002Z,58.78
2023-04-21T00:30:09.493Z,58.64
2023-04-21T00:32:38.460Z,58.30
2023-04-21T00:35:08.895Z,58.04
2023-04-21T00:37:37.292Z,57.76
2023-04-21T00:40:06.150Z,57.54
2023-04-21T00:42:34.352Z,57.47
2023-04-21T00:45:02.647Z,57.92
2023-04-21T00:47:32.273Z,58.02
2023-04-21T00:50:00.744Z,57.35
2023-04-21T00:52:30.835Z,57.60
2023-04-21T00:54:59.099Z,57.81
2023-04-21T00:57:28.784Z,57.35
2023-04-21T00:59:56.930Z,57.42
2023-04-21T01:02:26.340Z,57.39
2023-04-21T01:04:54.558Z,57.40
2023-04-21T01:07:22.774Z,56.98
2023-04-21T01:09:52.172Z,57.19
2023-04-21T01:12:20.531Z,57.44
2023-04-21T01:14:48.570Z,57.46
2023-04-21T01:17:18.991Z,57.71
2023-04-21T01:19:49.085Z,57.66
2023-04-21T01:22:18.776Z,57.57
2023-04-21T01:24:48.961Z,58.10
2023-04-21T01:27:19.305Z,58.17
2023-04-21T01:29:50.557Z,57.59
2023-04-21T01:32:20.946Z,57.38
2023-04-21T01:34:50.687Z,57.40
2023-04-21T01:37:23.052Z,58.21
2023-04-21T01:39:55.398Z,59.41
2023-04-21T01:42:26.036Z,60.31
2023-04-21T01:44:54.765Z,60.50
2023-04-21T01:47:23.113Z,60.29
2023-04-21T01:49:51.242Z,60.57
2023-04-21T01:52:21.832Z,61.13
2023-04-21T01:54:50.191Z,60.79
2023-04-21T01:57:18.982Z,60.76
2023-04-21T01:59:47.113Z,60.26
2023-04-21T02:02:15.311Z,61.79
2023-04-21T02:04:43.425Z,60.60
2023-04-21T02:07:11.379Z,60.10
2023-04-21T02:09:42.956Z,61.04
2023-04-21T02:12:11.304Z,61.53
2023-04-21T02:14:43.624Z,61.86
2023-04-21T02:17:11.832Z,62.34
2023-04-21T02:19:39.857Z,61.18
2023-04-21T02:22:08.470Z,61.53
2023-04-21T02:24:36.487Z,60.57
2023-04-21T02:27:06.154Z,60.22
2023-04-21T02:29:34.187Z,60.13
2023-04-21T02:32:10.783Z,59.73
2023-04-21T02:34:46.412Z,60.26
2023-04-21T02:37:14.507Z,60.63
2023-04-21T02:39:43.771Z,60.54
2023-04-21T02:42:13.184Z,60.96
2023-04-21T02:44:42.961Z,60.40
2023-04-21T02:47:10.958Z,61.23
2023-04-21T02:49:42.349Z,61.44
2023-04-21T02:52:10.610Z,62.19
2023-04-21T02:54:38.858Z,62.35
2023-04-21T02:57:06.899Z,63.28
2023-04-21T02:59:36.380Z,64.25
2023-04-21T03:02:04.869Z,64.87
2023-04-21T03:04:34.296Z,65.03
2023-04-21T03:07:02.586Z,66.39
2023-04-21T03:09:30.708Z,65.96
2023-04-21T03:12:00.664Z,66.20
2023-04-21T03:14:28.735Z,65.48
2023-04-21T03:16:58.230Z,65.61
2023-04-21T03:19:26.346Z,66.76
2023-04-21T03:21:54.420Z,67.16
2023-04-21T03:24:23.135Z,66.98
2023-04-21T03:26:51.384Z,67.41
2023-04-21T03:29:19.787Z,67.18
2023-04-21T03:31:48.114Z,65.73
2023-04-21T03:34:17.713Z,65.58
2023-04-21T03:36:46.134Z,66.31
2023-04-21T03:41:47.406Z,66.37
2023-04-21T03:44:20.381Z,67.22
2023-04-21T03:46:48.588Z,66.60
2023-04-21T03:49:18.102Z,65.29
2023-04-21T03:51:46.242Z,65.38
2023-04-21T03:54:14.334Z,65.01
2023-04-21T03:56:42.454Z,64.54
2023-04-21T03:59:10.701Z,65.75
2023-04-21T04:01:38.860Z,66.40
2023-04-21T04:04:07.019Z,66.18
2023-04-21T04:06:36.952Z,66.45
2023-04-21T04:09:05.092Z,66.81
2023-04-21T04:11:33.263Z,66.54
2023-04-21T04:14:02.204Z,65.74
2023-04-21T04:16:30.665Z,65.31
2023-04-21T04:18:58.735Z,66.34
2023-04-21T04:21:27.638Z,67.09
2023-04-21T04:23:57.043Z,66.61
2023-04-21T04:26:25.760Z,66.40
2023-04-21T04:28:56.365Z,65.81
2023-04-21T04:31:25.729Z,66.28
2023-04-21T04:33:55.477Z,66.65
2023-04-21T04:36:30.658Z,65.94
2023-04-21T04:39:04.557Z,65.58
2023-04-21T04:41:33.747Z,64.40
2023-04-21T04:44:01.863Z,63.34
2023-04-21T04:46:30.059Z,62.22
2023-04-21T04:48:58.143Z,61.83
2023-04-21T04:51:26.421Z,61.24
2023-04-21T04:53:54.395Z,61.53
2023-04-21T04:56:24.231Z,61.33
2023-04-21T04:58:52.448Z,61.69
2023-04-21T05:01:21.088Z,62.00
2023-04-21T05:03:49.184Z,62.46
2023-04-21T05:06:17.446Z,62.03
2023-04-21T05:08:45.912Z,61.61
2023-04-21T05:11:13.996Z,61.70
2023-04-21T05:13:43.522Z,62.50
2023-04-21T05:16:11.707Z,61.10
2023-04-21T05:18:39.757Z,60.88
2023-04-21T05:21:08.409Z,62.67
2023-04-21T05:23:36.440Z,63.04
2023-04-21T05:26:05.057Z,63.44
2023-04-21T05:28:33.344Z,63.01
2023-04-21T05:31:02.855Z,62.86
2023-04-21T05:33:32.066Z,63.26
2023-04-21T05:36:00.348Z,62.89
2023-04-21T05:38:28.407Z,61.96
2023-04-21T05:40:56.812Z,62.66
2023-04-21T05:43:24.966Z,62.42
2023-04-21T05:45:53.160Z,61.69
2023-04-21T05:48:23.522Z,61.14
2023-04-21T05:50:51.593Z,60.45
2023-04-21T05:53:19.648Z,60.90
2023-04-21T05:55:47.748Z,60.00
2023-04-21T05:58:15.759Z,60.30
2023-04-21T06:00:43.971Z,60.71
2023-04-21T06:03:12.200Z,59.83
2023-04-21T06:05:41.774Z,58.95
2023-04-21T06:08:09.851Z,57.89
2023-04-21T06:10:38.062Z,58.34
2023-04-21T06:13:06.146Z,58.01
2023-04-21T06:15:34.268Z,57.96
2023-04-21T06:18:02.358Z,58.67
2023-04-21T06:20:30.469Z,58.16
2023-04-21T06:22:59.868Z,57.51
2023-04-21T06:25:28.199Z,57.83
2023-04-21T06:27:56.447Z,57.26
2023-04-21T06:30:24.714Z,56.64
2023-04-21T06:32:52.747Z,56.29
2023-04-21T06:35:21.471Z,56.17
2023-04-21T06:37:49.533Z,55.95
2023-04-21T06:40:19.189Z,56.17
2023-04-21T06:42:47.200Z,55.33
2023-04-21T06:45:15.526Z,55.30
2023-04-21T06:47:44.063Z,54.81
2023-04-21T06:50:12.301Z,54.47
2023-04-21T06:52:40.323Z,54.34
2023-04-21T06:55:09.341Z,53.77
2023-04-21T06:57:38.662Z,53.82
2023-04-21T07:00:08.026Z,53.68
2023-04-21T07:02:36.180Z,54.79
2023-04-21T07:05:04.762Z,54.70
2023-04-21T07:07:32.783Z,54.50
2023-04-21T07:10:00.934Z,54.12
2023-04-21T07:12:29.037Z,53.83
2023-04-21T07:14:58.637Z,53.76
2023-04-21T07:17:26.920Z,53.77
2023-04-21T07:19:55.026Z,53.95
2023-04-21T07:22:23.093Z,53.07
2023-04-21T07:24:51.403Z,52.44
2023-04-21T07:27:20.281Z,52.83
2023-04-21T07:29:48.361Z,52.89
2023-04-21T07:32:17.798Z,52.63
2023-04-21T07:34:47.069Z,52.48
2023-04-21T07:37:15.130Z,52.21
2023-04-21T07:39:43.514Z,51.90
2023-04-21T07:42:11.939Z,51.45
2023-04-21T07:44:40.053Z,49.69
2023-04-21T07:47:08.203Z,48.53
2023-04-21T07:49:37.713Z,49.33
2023-04-21T07:52:05.776Z,49.27
2023-04-21T07:54:33.853Z,50.43
2023-04-21T07:57:02.590Z,50.43
2023-04-21T07:59:30.831Z,51.40
2023-04-21T08:01:58.916Z,50.36
2023-04-21T08:04:27.439Z,49.14
2023-04-21T08:06:56.940Z,49.83
2023-04-21T08:09:25.155Z,48.52
2023-04-21T08:11:54.017Z,48.74
2023-04-21T08:14:22.296Z,48.37
2023-04-21T08:16:51.112Z,48.13
2023-04-21T08:19:19.694Z,48.37
2023-04-21T08:21:48.008Z,48.35
2023-04-21T08:24:17.715Z,48.26
2023-04-21T08:26:46.048Z,48.73
2023-04-21T08:29:14.285Z,48.64
2023-04-21T08:31:42.601Z,47.46
2023-04-21T08:34:11.026Z,47.66
2023-04-21T08:36:39.092Z,47.25
2023-04-21T08:39:07.181Z,48.61
2023-04-21T08:41:36.648Z,47.64
2023-04-21T08:44:06.079Z,46.85
2023-04-21T08:46:34.818Z,46.67
2023-04-21T08:49:03.460Z,47.46
2023-04-21T08:51:32.134Z,46.79
2023-04-21T08:54:00.222Z,46.28
2023-04-21T08:56:28.589Z,45.59
2023-04-21T08:58:58.068Z,47.13
2023-04-21T09:01:26.181Z,45.72
2023-04-21T09:03:54.573Z,45.80
2023-04-21T09:06:22.857Z,44.84
2023-04-21T09:08:56.642Z,44.85
2023-04-21T09:11:25.804Z,45.05
2023-04-21T09:13:59.695Z,45.22
2023-04-21T09:16:33.176Z,45.13
2023-04-21T09:19:02.103Z,43.73
2023-04-21T09:21:32.413Z,43.75
2023-04-21T09:24:06.709Z,42.80
2023-04-21T09:26:37.502Z,43.58
2023-04-21T09:29:07.724Z,42.92
2023-04-21T09:31:37.327Z,42.31
2023-04-21T09:34:19.778Z,43.75
2023-04-21T09:36:48.563Z,44.97
2023-04-21T09:41:48.138Z,39.45
2023-04-21T09:44:18.467Z,42.13
2023-04-21T09:46:50.766Z,42.78
2023-04-21T09:49:19.537Z,41.26
2023-04-21T09:54:29.759Z,39.24
2023-04-21T09:57:01.974Z,39.50
2023-04-21T09:59:34.338Z,37.98
2023-04-21T10:02:05.852Z,37.32
2023-04-21T10:04:36.267Z,38.57
2023-04-21T10:07:04.900Z,37.84
2023-04-21T10:09:38.064Z,38.67
2023-04-21T10:12:09.186Z,36.22
2023-04-21T10:14:39.395Z,37.37
2023-04-21T10:17:10.082Z,35.80
2023-04-21T10:19:40.778Z,36.44
2023-04-21T10:22:10.501Z,37.00
2023-04-21T10:24:40.189Z,38.60
2023-04-21T10:27:12.257Z,37.39
2023-04-21T10:29:55.243Z,37.34
2023-04-21T10:32:41.941Z,37.30
2023-04-21T10:35:11.272Z,36.59
2023-04-21T10:37:39.505Z,36.29
2023-04-21T10:40:11.050Z,35.09
2023-04-21T10:42:39.119Z,35.50
2023-04-21T10:45:11.797Z,36.09
2023-04-21T10:47:43.011Z,37.42
2023-04-21T10:50:19.609Z,38.69
2023-04-21T10:52:53.601Z,39.37
2023-04-21T10:55:22.669Z,37.86
2023-04-21T10:57:50.975Z,37.13
2023-04-21T11:00:23.071Z,39.50
2023-04-21T11:02:59.412Z,38.14
2023-04-21T11:05:38.477Z,38.51
2023-04-21T11:08:15.094Z,38.12
2023-04-21T11:10:45.121Z,38.61
2023-04-21T11:13:13.210Z,38.73
2023-04-21T11:15:42.891Z,37.46
2023-04-21T11:18:12.196Z,37.97
2023-04-21T11:20:46.193Z,37.45
2023-04-21T11:23:18.899Z,37.34
2023-04-21T11:25:49.515Z,36.02
2023-04-21T11:28:23.292Z,35.69
2023-04-21T11:30:52.976Z,36.26
2023-04-21T11:33:21.410Z,36.24
2023-04-21T11:35:51.693Z,35.14
2023-04-21T11:38:20.016Z,35.32
2023-04-21T11:40:48.826Z,34.63
2023-04-21T11:43:17.153Z,35.68
2023-04-21T11:45:49.693Z,35.16
2023-04-21T11:48:20.677Z,34.20
2023-04-21T11:50:49.371Z,33.33
2023-04-21T11:53:18.003Z,33.20
2023-04-21T11:55:47.192Z,33.64
2023-04-21T11:58:16.585Z,32.63
2023-04-21T12:00:46.810Z,32.41
2023-04-21T12:03:15.222Z,31.78
2023-04-21T12:05:44.839Z,31.25
2023-04-21T12:08:15.992Z,31.59
2023-04-21T12:10:47.433Z,31.35
2023-04-21T12:13:23.496Z,30.76
2023-04-21T12:15:51.815Z,32.31
2023-04-21T12:18:20.036Z,32.01
2023-04-21T12:20:53.467Z,30.12
2023-04-21T12:23:21.609Z,29.71
2023-04-21T12:25:50.142Z,30.22
2023-04-21T12:28:18.960Z,30.47
2023-04-21T12:30:46.950Z,29.95
2023-04-21T12:33:15.216Z,28.67
2023-04-21T12:35:43.383Z,29.47
2023-04-21T12:38:12.937Z,32.76
2023-04-21T12:40:41.050Z,32.69
2023-04-21T12:43:09.163Z,33.86
2023-04-21T12:45:37.423Z,31.87
2023-04-21T12:48:05.489Z,31.64
2023-04-21T12:50:33.525Z,30.55
2023-04-21T12:53:01.676Z,30.06
2023-04-21T12:55:31.083Z,29.54
2023-04-21T12:57:59.633Z,30.51
2023-04-21T13:00:28.570Z,29.79
2023-04-21T13:02:56.827Z,29.63
2023-04-21T13:05:25.539Z,30.28
2023-04-21T13:07:54.425Z,29.55
2023-04-21T13:10:22.583Z,30.11
2023-04-21T13:12:52.058Z,29.76
2023-04-21T13:15:20.128Z,31.17
2023-04-21T13:17:48.440Z,30.70
2023-04-21T13:20:19.232Z,29.88
2023-04-21T13:22:47.507Z,30.42
2023-04-21T13:25:15.598Z,30.14
2023-04-21T13:27:43.798Z,28.26
2023-04-21T13:30:15.939Z,28.00
2023-04-21T13:32:45.070Z,27.85
2023-04-21T13:35:13.198Z,28.38
2023-04-21T13:37:42.496Z,27.86
2023-04-21T13:40:12.076Z,27.92
2023-04-21T13:42:40.733Z,28.25
2023-04-21T13:45:09.785Z,27.83
2023-04-21T13:47:39.489Z,29.45
2023-04-21T13:50:09.174Z,28.87
2023-04-21T13:52:37.432Z,27.61
2023-04-21T13:55:06.296Z,27.93
2023-04-21T13:57:34.572Z,26.88
2023-04-21T14:00:03.875Z,27.89
2023-04-21T14:02:32.430Z,27.13
2023-04-21T14:05:02.535Z,27.10
2023-04-21T14:07:31.421Z,27.41
2023-04-21T14:09:59.634Z,27.10
2023-04-21T14:12:27.720Z,27.83
2023-04-21T14:14:55.846Z,27.35
2023-04-21T14:17:24.344Z,27.57
2023-04-21T14:19:54.541Z,27.21
2023-04-21T14:22:24.779Z,27.65
2023-04-21T14:24:52.925Z,28.33
2023-04-21T14:27:21.357Z,27.74
2023-04-21T14:29:49.384Z,27.22
2023-04-21T14:32:20.518Z,27.54
2023-04-21T14:34:53.315Z,27.34
2023-04-21T14:37:21.968Z,26.64
2023-04-21T14:39:52.961Z,26.18
2023-04-21T14:42:21.426Z,26.87
2023-04-21T14:44:49.552Z,26.15
2023-04-21T14:47:17.981Z,27.08
2023-04-21T14:49:46.374Z,26.89
2023-04-21T14:52:15.007Z,26.76
2023-04-21T14:54:43.050Z,27.46
2023-04-21T14:57:20.644Z,27.14
2023-04-21T14:59:50.784Z,26.54
2023-04-21T15:02:19.154Z,26.96
2023-04-21T15:04:47.835Z,27.15
2023-04-21T15:07:19.825Z,26.92
2023-04-21T15:09:51.942Z,26.86
2023-04-21T15:12:21.502Z,27.14
2023-04-21T15:14:49.697Z,27.18
2023-04-21T15:17:17.800Z,26.96
2023-04-21T15:19:45.915Z,26.90
2023-04-21T15:22:15.372Z,27.34
2023-04-21T15:24:43.604Z,27.24
2023-04-21T15:27:11.689Z,27.55
2023-04-21T15:29:41.238Z,27.62
2023-04-21T15:32:09.664Z,28.01
2023-04-21T15:34:37.739Z,27.71
2023-04-21T15:37:05.848Z,27.93
2023-04-21T15:39:33.996Z,27.59
2023-04-21T15:42:04.439Z,26.85
2023-04-21T15:44:34.106Z,27.52
2023-04-21T15:47:03.886Z,27.74
2023-04-21T15:49:32.012Z,27.11
2023-04-21T15:52:00.174Z,27.72
2023-04-21T15:54:28.265Z,27.70
2023-04-21T15:56:57.700Z,27.28
2023-04-21T15:59:26.352Z,27.49
2023-04-21T16:01:54.867Z,27.59
2023-04-21T16:04:24.559Z,27.67
2023-04-21T16:06:52.857Z,27.90
2023-04-21T16:09:21.906Z,27.26
2023-04-21T16:11:51.510Z,26.68
2023-04-21T16:14:19.944Z,27.14
2023-04-21T16:16:48.124Z,27.43
2023-04-21T16:19:16.663Z,28.11
2023-04-21T16:21:46.155Z,27.94
2023-04-21T16:24:14.322Z,27.89
2023-04-21T16:26:42.458Z,28.35
2023-04-21T16:29:10.560Z,29.03
2023-04-21T16:31:38.723Z,29.00
2023-04-21T16:34:06.838Z,28.38
2023-04-21T16:36:35.159Z,28.60
2023-04-21T16:39:04.628Z,28.70
2023-04-21T16:41:32.791Z,28.67
2023-04-21T16:44:00.883Z,28.30
2023-04-21T16:46:29.348Z,28.74
2023-04-21T16:48:57.463Z,28.71
2023-04-21T16:51:26.989Z,29.06
2023-04-21T16:53:56.642Z,29.27
2023-04-21T16:56:26.149Z,29.50
2023-04-21T16:58:54.377Z,29.88
2023-04-21T17:01:22.529Z,30.27
2023-04-21T17:03:50.831Z,30.62
2023-04-21T17:06:21.364Z,30.31
2023-04-21T17:08:49.886Z,30.45
2023-04-21T17:11:17.879Z,31.12
2023-04-21T17:13:47.315Z,31.36
2023-04-21T17:16:15.886Z,31.21
2023-04-21T17:18:43.988Z,31.85
2023-04-21T17:21:12.609Z,31.82
2023-04-21T17:23:40.958Z,31.84
2023-04-21T17:26:11.579Z,32.35
2023-04-21T17:28:41.517Z,32.72
2023-04-21T17:31:15.626Z,33.36
2023-04-21T17:33:44.351Z,33.77
2023-04-21T17:36:12.754Z,33.43
2023-04-21T17:38:42.883Z,33.25
2023-04-21T17:41:11.572Z,33.48
2023-04-21T17:43:39.673Z,34.29
2023-04-21T17:46:08.285Z,33.92
2023-04-21T17:48:38.365Z,34.18
2023-04-21T17:51:06.617Z,34.34
2023-04-21T17:53:34.746Z,34.63
2023-04-21T17:56:03.032Z,35.36
2023-04-21T17:58:31.010Z,35.50
2023-04-21T18:00:59.270Z,35.58
2023-04-21T18:03:27.598Z,36.17
2023-04-21T18:05:57.606Z,36.32
2023-04-21T18:08:26.450Z,36.82
2023-04-21T18:10:55.552Z,37.20
2023-04-21T18:13:23.580Z,37.57
2023-04-21T18:15:51.879Z,37.64
2023-04-21T18:18:19.978Z,37.53
2023-04-21T18:20:48.363Z,37.78
2023-04-21T18:23:17.782Z,37.88
2023-04-21T18:25:45.956Z,38.18
2023-04-21T18:28:14.407Z,37.83
2023-04-21T18:30:42.916Z,37.80
2023-04-21T18:33:11.761Z,37.65
2023-04-21T18:35:40.241Z,37.75
2023-04-21T18:38:10.549Z,37.92
2023-04-21T18:40:40.859Z,38.07
2023-04-21T18:43:09.783Z,38.15
2023-04-21T18:45:38.074Z,38.36
2023-04-21T18:48:06.403Z,38.58
2023-04-21T18:50:39.490Z,38.67
2023-04-21T18:53:08.591Z,38.83
2023-04-21T18:55:37.474Z,39.16
2023-04-21T18:58:07.157Z,39.57
2023-04-21T19:00:37.743Z,39.66
2023-04-21T19:03:07.103Z,40.29
2023-04-21T19:05:36.848Z,40.20
2023-04-21T19:08:05.236Z,40.13
2023-04-21T19:10:35.540Z,40.50
2023-04-21T19:13:03.631Z,40.44
2023-04-21T19:15:33.090Z,40.19
2023-04-21T19:18:01.324Z,40.92
2023-04-21T19:20:30.326Z,41.02
2023-04-21T19:22:58.411Z,41.09
2023-04-21T19:25:26.434Z,41.29
2023-04-21T19:27:54.562Z,41.61
2023-04-21T19:30:22.840Z,41.32
2023-04-21T19:32:52.322Z,41.08
2023-04-21T19:35:20.945Z,41.00
2023-04-21T19:37:48.983Z,41.16
2023-04-21T19:40:17.167Z,40.94
2023-04-21T19:42:45.334Z,40.98
2023-04-21T19:45:13.355Z,40.88
2023-04-21T19:47:41.420Z,40.99
2023-04-21T19:50:12.946Z,40.97
2023-04-21T19:52:41.019Z,40.95
2023-04-21T19:55:09.817Z,41.29
2023-04-21T19:57:37.906Z,41.29
2023-04-21T20:00:09.240Z,41.09
2023-04-21T20:02:40.372Z,41.19
2023-04-21T20:05:10.976Z,41.19
2023-04-21T20:07:39.774Z,41.50
2023-04-21T20:10:08.630Z,41.82
2023-04-21T20:12:36.924Z,42.02
2023-04-21T20:15:06.132Z,42.07
2023-04-21T20:17:34.322Z,42.08
2023-04-21T20:20:03.386Z,42.19
2023-04-21T20:22:32.838Z,42.33
2023-04-21T20:25:00.947Z,42.77
2023-04-21T20:27:28.969Z,42.80
2023-04-21T20:29:56.974Z,42.80
2023-04-21T20:32:25.158Z,43.06
2023-04-21T20:34:54.101Z,43.01
2023-04-21T20:37:23.143Z,43.34
2023-04-21T20:39:52.794Z,43.60
2023-04-21T20:42:21.909Z,43.39
2023-04-21T20:44:50.192Z,43.53
2023-04-21T20:47:18.287Z,44.00
2023-04-21T20:49:47.392Z,43.94
2023-04-21T20:52:16.052Z,43.89
2023-04-21T20:54:44.136Z,44.01
2023-04-21T20:57:13.578Z,43.98
2023-04-21T20:59:41.834Z,44.23
2023-04-21T21:02:10.214Z,44.63
2023-04-21T21:04:38.351Z,44.26
2023-04-21T21:07:06.510Z,44.01
2023-04-21T21:09:34.616Z,43.86
2023-04-21T21:12:03.542Z,44.57
2023-04-21T21:14:32.954Z,44.79
2023-04-21T21:17:01.502Z,44.63
2023-04-21T21:19:29.786Z,45.48
2023-04-21T21:21:57.903Z,45.28
2023-04-21T21:24:26.490Z,45.86
2023-04-21T21:26:54.535Z,45.92
2023-04-21T21:29:22.602Z,45.67
2023-04-21T21:31:52.102Z,46.09
2023-04-21T21:34:20.294Z,46.31
2023-04-21T21:36:48.414Z,45.84
2023-04-21T21:39:16.527Z,46.14
2023-04-21T21:41:44.493Z,46.44
2023-04-21T21:44:12.626Z,46.51
2023-04-21T21:46:41.295Z,46.61
2023-04-21T21:49:11.485Z,47.03
2023-04-21T21:51:39.594Z,47.46
2023-04-21T21:54:07.588Z,47.10
2023-04-21T21:56:36.661Z,47.11
2023-04-21T21:59:04.738Z,46.98
2023-04-21T22:01:32.970Z,47.02
2023-04-21T22:04:01.241Z,46.46
2023-04-21T22:06:32.670Z,46.27
2023-04-21T22:09:00.805Z,46.31
2023-04-21T22:11:28.839Z,46.40
2023-04-21T22:14:00.629Z,46.46
2023-04-21T22:16:34.552Z,46.41
2023-04-21T22:19:03.558Z,46.74
2023-04-21T22:21:33.032Z,46.53
2023-04-21T22:24:01.020Z,46.49
2023-04-21T22:26:29.078Z,46.61
2023-04-21T22:28:57.225Z,46.38
2023-04-21T22:31:25.313Z,45.74
2023-04-21T22:33:53.410Z,46.19
2023-04-21T22:36:21.453Z,46.64
2023-04-21T22:38:50.995Z,46.17
2023-04-21T22:41:19.040Z,47.28
2023-04-21T22:43:47.119Z,47.58
2023-04-21T22:46:15.341Z,46.47
2023-04-21T22:48:46.540Z,46.81
2023-04-21T22:51:14.990Z,46.53
2023-04-21T22:53:42.987Z,46.70
2023-04-21T22:56:12.364Z,47.40
2023-04-21T22:58:41.689Z,46.62
2023-04-21T23:01:09.845Z,46.79
2023-04-21T23:03:38.065Z,46.78
2023-04-21T23:06:06.416Z,46.81
2023-04-21T23:08:34.623Z,46.46
2023-04-21T23:11:04.204Z,46.24
2023-04-21T23:13:33.752Z,46.18
2023-04-21T23:16:02.370Z,46.65
2023-04-21T23:18:30.543Z,46.35
2023-04-21T23:20:59.040Z,46.42
2023-04-21T23:23:27.196Z,46.98
2023-04-21T23:25:55.218Z,47.22
2023-04-21T23:28:24.397Z,47.06
2023-04-21T23:30:53.861Z,46.65
2023-04-21T23:33:21.956Z,46.71
2023-04-21T23:35:50.061Z,46.49
2023-04-21T23:38:18.181Z,46.12
2023-04-21T23:40:46.178Z,45.70
2023-04-21T23:43:14.389Z,46.47
2023-04-21T23:45:42.576Z,46.03
2023-04-21T23:48:12.035Z,47.51
2023-04-21T23:50:40.243Z,48.40
2023-04-21T23:53:08.239Z,48.14
2023-04-21T23:55:36.315Z,48.17
2023-04-21T23:58:04.521Z,48.21
